sensor_id;sensor_type;location;lat;lon;timestamp;P1;durP1;ratioP1;P2;durP2;ratioP2
10471;SDS011;5283;48.876;8.962;2023-12-28T00:01:45;1.93;;;1.60;;
10471;SDS011;5283;48.876;8.962;2023-12-28T00:04:12;2.33;;;1.70;;
10471;SDS011;5283;48.876;8.962;2023-12-28T00:06:38;3.27;;;1.80;;
10471;SDS011;5283;48.876;8.962;2023-12-28T00:09:05;2.77;;;1.60;;
10471;SDS011;5283;48.876;8.962;2023-12-28T00:11:36;2.20;;;1.70;;
10471;SDS011;5283;48.876;8.962;2023-12-28T00:14:02;1.33;;;1.20;;
10471;SDS011;5283;48.876;8.962;2023-12-28T00:16:30;1.37;;;1.27;;
10471;SDS011;5283;48.876;8.962;2023-12-28T00:18:58;3.13;;;1.53;;
10471;SDS011;5283;48.876;8.962;2023-12-28T00:21:26;4.47;;;1.70;;
10471;SDS011;5283;48.876;8.962;2023-12-28T00:23:52;2.50;;;1.90;;
10471;SDS011;5283;48.876;8.962;2023-12-28T00:26:19;1.70;;;1.40;;
10471;SDS011;5283;48.876;8.962;2023-12-28T00:28:48;2.13;;;1.50;;
10471;SDS011;5283;48.876;8.962;2023-12-28T00:31:14;2.30;;;1.53;;
10471;SDS011;5283;48.876;8.962;2023-12-28T00:33:41;2.50;;;1.60;;
10471;SDS011;5283;48.876;8.962;2023-12-28T00:36:08;1.50;;;1.40;;
10471;SDS011;5283;48.876;8.962;2023-12-28T00:38:34;2.17;;;1.63;;
10471;SDS011;5283;48.876;8.962;2023-12-28T00:41:01;1.77;;;1.60;;
10471;SDS011;5283;48.876;8.962;2023-12-28T00:43:28;2.47;;;1.37;;
10471;SDS011;5283;48.876;8.962;2023-12-28T00:45:55;2.30;;;1.83;;
10471;SDS011;5283;48.876;8.962;2023-12-28T00:48:21;1.80;;;1.30;;
10471;SDS011;5283;48.876;8.962;2023-12-28T00:50:48;3.73;;;1.90;;
10471;SDS011;5283;48.876;8.962;2023-12-28T00:53:15;2.13;;;1.47;;
10471;SDS011;5283;48.876;8.962;2023-12-28T00:55:41;2.10;;;1.20;;
10471;SDS011;5283;48.876;8.962;2023-12-28T00:58:08;1.70;;;1.30;;
10471;SDS011;5283;48.876;8.962;2023-12-28T01:00:35;2.07;;;1.50;;
10471;SDS011;5283;48.876;8.962;2023-12-28T01:03:01;1.30;;;1.20;;
10471;SDS011;5283;48.876;8.962;2023-12-28T01:05:28;2.90;;;1.27;;
10471;SDS011;5283;48.876;8.962;2023-12-28T01:07:55;1.30;;;1.20;;
10471;SDS011;5283;48.876;8.962;2023-12-28T01:10:22;2.13;;;1.70;;
10471;SDS011;5283;48.876;8.962;2023-12-28T01:12:48;3.47;;;1.30;;
10471;SDS011;5283;48.876;8.962;2023-12-28T01:15:15;1.67;;;1.57;;
10471;SDS011;5283;48.876;8.962;2023-12-28T01:17:43;1.97;;;1.70;;
10471;SDS011;5283;48.876;8.962;2023-12-28T01:20:10;1.97;;;1.30;;
10471;SDS011;5283;48.876;8.962;2023-12-28T01:22:37;1.40;;;1.07;;
10471;SDS011;5283;48.876;8.962;2023-12-28T01:25:04;2.13;;;1.60;;
10471;SDS011;5283;48.876;8.962;2023-12-28T01:27:31;1.57;;;1.47;;
10471;SDS011;5283;48.876;8.962;2023-12-28T01:29:57;1.37;;;1.27;;
10471;SDS011;5283;48.876;8.962;2023-12-28T01:32:24;1.77;;;1.40;;
10471;SDS011;5283;48.876;8.962;2023-12-28T01:34:51;1.53;;;1.27;;
10471;SDS011;5283;48.876;8.962;2023-12-28T01:37:18;1.43;;;1.33;;
10471;SDS011;5283;48.876;8.962;2023-12-28T01:39:44;1.43;;;1.33;;
10471;SDS011;5283;48.876;8.962;2023-12-28T01:42:11;1.00;;;0.90;;
10471;SDS011;5283;48.876;8.962;2023-12-28T01:44:38;2.00;;;1.30;;
10471;SDS011;5283;48.876;8.962;2023-12-28T01:47:05;1.53;;;1.20;;
10471;SDS011;5283;48.876;8.962;2023-12-28T01:49:32;3.07;;;1.40;;
10471;SDS011;5283;48.876;8.962;2023-12-28T01:52:00;2.17;;;1.63;;
10471;SDS011;5283;48.876;8.962;2023-12-28T01:54:28;2.77;;;1.27;;
10471;SDS011;5283;48.876;8.962;2023-12-28T01:56:55;1.20;;;1.10;;
10471;SDS011;5283;48.876;8.962;2023-12-28T01:59:23;1.80;;;1.43;;
10471;SDS011;5283;48.876;8.962;2023-12-28T02:01:49;2.73;;;1.30;;
10471;SDS011;5283;48.876;8.962;2023-12-28T02:04:16;0.90;;;0.90;;
10471;SDS011;5283;48.876;8.962;2023-12-28T02:09:34;2.20;;;1.50;;
10471;SDS011;5283;48.876;8.962;2023-12-28T02:12:01;1.20;;;1.00;;
10471;SDS011;5283;48.876;8.962;2023-12-28T02:14:28;1.27;;;1.17;;
10471;SDS011;5283;48.876;8.962;2023-12-28T02:17:30;1.37;;;1.27;;
10471;SDS011;5283;48.876;8.962;2023-12-28T02:19:54;1.73;;;1.20;;
10471;SDS011;5283;48.876;8.962;2023-12-28T02:22:22;1.40;;;1.30;;
10471;SDS011;5283;48.876;8.962;2023-12-28T02:27:27;1.63;;;1.33;;
10471;SDS011;5283;48.876;8.962;2023-12-28T02:29:54;1.10;;;1.00;;
10471;SDS011;5283;48.876;8.962;2023-12-28T02:32:25;1.60;;;1.13;;
10471;SDS011;5283;48.876;8.962;2023-12-28T02:35:04;1.23;;;1.10;;
10471;SDS011;5283;48.876;8.962;2023-12-28T02:37:36;1.27;;;1.17;;
10471;SDS011;5283;48.876;8.962;2023-12-28T02:40:04;1.67;;;1.47;;
10471;SDS011;5283;48.876;8.962;2023-12-28T02:42:32;2.80;;;1.20;;
10471;SDS011;5283;48.876;8.962;2023-12-28T02:44:58;1.20;;;1.10;;
10471;SDS011;5283;48.876;8.962;2023-12-28T02:47:26;1.57;;;1.33;;
10471;SDS011;5283;48.876;8.962;2023-12-28T02:49:52;1.27;;;1.17;;
10471;SDS011;5283;48.876;8.962;2023-12-28T02:52:19;1.00;;;1.00;;
10471;SDS011;5283;48.876;8.962;2023-12-28T02:54:46;2.47;;;1.37;;
10471;SDS011;5283;48.876;8.962;2023-12-28T02:57:13;1.37;;;1.20;;
10471;SDS011;5283;48.876;8.962;2023-12-28T02:59:47;1.47;;;1.33;;
10471;SDS011;5283;48.876;8.962;2023-12-28T03:02:14;1.27;;;1.17;;
10471;SDS011;5283;48.876;8.962;2023-12-28T03:04:40;2.00;;;1.43;;
10471;SDS011;5283;48.876;8.962;2023-12-28T03:07:07;1.83;;;1.40;;
10471;SDS011;5283;48.876;8.962;2023-12-28T03:09:35;2.40;;;1.23;;
10471;SDS011;5283;48.876;8.962;2023-12-28T03:12:04;1.80;;;1.00;;
10471;SDS011;5283;48.876;8.962;2023-12-28T03:14:32;1.17;;;1.07;;
10471;SDS011;5283;48.876;8.962;2023-12-28T03:16:59;1.37;;;0.80;;
10471;SDS011;5283;48.876;8.962;2023-12-28T03:19:26;0.73;;;0.73;;
10471;SDS011;5283;48.876;8.962;2023-12-28T03:21:52;1.97;;;1.43;;
10471;SDS011;5283;48.876;8.962;2023-12-28T03:24:19;1.90;;;1.07;;
10471;SDS011;5283;48.876;8.962;2023-12-28T03:26:46;1.80;;;1.30;;
10471;SDS011;5283;48.876;8.962;2023-12-28T03:29:12;1.67;;;1.50;;
10471;SDS011;5283;48.876;8.962;2023-12-28T03:31:39;1.33;;;1.10;;
10471;SDS011;5283;48.876;8.962;2023-12-28T03:34:06;1.50;;;1.33;;
10471;SDS011;5283;48.876;8.962;2023-12-28T03:36:34;1.27;;;1.00;;
10471;SDS011;5283;48.876;8.962;2023-12-28T03:39:01;1.40;;;1.20;;
10471;SDS011;5283;48.876;8.962;2023-12-28T03:41:29;2.77;;;1.00;;
10471;SDS011;5283;48.876;8.962;2023-12-28T03:43:56;0.70;;;0.70;;
10471;SDS011;5283;48.876;8.962;2023-12-28T03:46:23;1.80;;;1.07;;
10471;SDS011;5283;48.876;8.962;2023-12-28T03:48:49;1.70;;;1.30;;
10471;SDS011;5283;48.876;8.962;2023-12-28T03:51:16;0.90;;;0.90;;
10471;SDS011;5283;48.876;8.962;2023-12-28T03:53:43;1.57;;;1.20;;
10471;SDS011;5283;48.876;8.962;2023-12-28T03:56:23;2.10;;;0.90;;
10471;SDS011;5283;48.876;8.962;2023-12-28T03:58:51;1.90;;;1.10;;
10471;SDS011;5283;48.876;8.962;2023-12-28T04:01:22;1.10;;;1.00;;
10471;SDS011;5283;48.876;8.962;2023-12-28T04:03:48;1.40;;;0.90;;
10471;SDS011;5283;48.876;8.962;2023-12-28T04:06:15;1.33;;;1.03;;
10471;SDS011;5283;48.876;8.962;2023-12-28T04:08:42;0.80;;;0.80;;
10471;SDS011;5283;48.876;8.962;2023-12-28T04:11:09;1.37;;;0.70;;
10471;SDS011;5283;48.876;8.962;2023-12-28T04:13:36;1.20;;;1.10;;
10471;SDS011;5283;48.876;8.962;2023-12-28T04:16:03;1.50;;;1.17;;
10471;SDS011;5283;48.876;8.962;2023-12-28T04:18:30;1.13;;;0.97;;
10471;SDS011;5283;48.876;8.962;2023-12-28T04:20:57;1.13;;;1.03;;
10471;SDS011;5283;48.876;8.962;2023-12-28T04:23:25;2.37;;;1.20;;
10471;SDS011;5283;48.876;8.962;2023-12-28T04:25:51;1.37;;;1.07;;
10471;SDS011;5283;48.876;8.962;2023-12-28T04:28:18;1.10;;;1.00;;
10471;SDS011;5283;48.876;8.962;2023-12-28T04:30:45;1.30;;;1.00;;
10471;SDS011;5283;48.876;8.962;2023-12-28T04:33:11;1.70;;;0.90;;
10471;SDS011;5283;48.876;8.962;2023-12-28T04:35:38;1.60;;;1.10;;
10471;SDS011;5283;48.876;8.962;2023-12-28T04:38:05;1.37;;;1.03;;
10471;SDS011;5283;48.876;8.962;2023-12-28T04:40:34;1.17;;;1.10;;
10471;SDS011;5283;48.876;8.962;2023-12-28T04:43:01;1.20;;;0.87;;
10471;SDS011;5283;48.876;8.962;2023-12-28T04:45:27;1.23;;;1.13;;
10471;SDS011;5283;48.876;8.962;2023-12-28T04:47:54;1.13;;;1.00;;
10471;SDS011;5283;48.876;8.962;2023-12-28T04:50:21;2.37;;;1.13;;
10471;SDS011;5283;48.876;8.962;2023-12-28T04:52:48;1.07;;;1.03;;
10471;SDS011;5283;48.876;8.962;2023-12-28T04:55:14;1.70;;;0.93;;
10471;SDS011;5283;48.876;8.962;2023-12-28T04:57:41;1.77;;;1.20;;
10471;SDS011;5283;48.876;8.962;2023-12-28T05:00:08;1.57;;;0.93;;
10471;SDS011;5283;48.876;8.962;2023-12-28T05:02:35;1.47;;;1.17;;
10471;SDS011;5283;48.876;8.962;2023-12-28T05:05:02;1.00;;;0.80;;
10471;SDS011;5283;48.876;8.962;2023-12-28T05:07:29;0.70;;;0.60;;
10471;SDS011;5283;48.876;8.962;2023-12-28T05:09:55;1.30;;;1.13;;
10471;SDS011;5283;48.876;8.962;2023-12-28T05:12:22;1.00;;;0.90;;
10471;SDS011;5283;48.876;8.962;2023-12-28T05:14:49;0.80;;;0.80;;
10471;SDS011;5283;48.876;8.962;2023-12-28T05:17:15;0.90;;;0.90;;
10471;SDS011;5283;48.876;8.962;2023-12-28T05:19:42;1.20;;;1.07;;
10471;SDS011;5283;48.876;8.962;2023-12-28T05:22:09;2.00;;;1.10;;
10471;SDS011;5283;48.876;8.962;2023-12-28T05:24:37;2.87;;;1.30;;
10471;SDS011;5283;48.876;8.962;2023-12-28T05:27:04;1.20;;;0.63;;
10471;SDS011;5283;48.876;8.962;2023-12-28T05:29:30;0.93;;;0.80;;
10471;SDS011;5283;48.876;8.962;2023-12-28T05:31:57;1.27;;;0.90;;
10471;SDS011;5283;48.876;8.962;2023-12-28T05:34:24;1.27;;;0.93;;
10471;SDS011;5283;48.876;8.962;2023-12-28T05:36:51;2.67;;;1.30;;
10471;SDS011;5283;48.876;8.962;2023-12-28T05:39:18;1.00;;;0.70;;
10471;SDS011;5283;48.876;8.962;2023-12-28T05:41:45;1.00;;;0.90;;
10471;SDS011;5283;48.876;8.962;2023-12-28T05:44:13;0.83;;;0.73;;
10471;SDS011;5283;48.876;8.962;2023-12-28T05:46:40;1.30;;;0.90;;
10471;SDS011;5283;48.876;8.962;2023-12-28T05:49:07;1.50;;;0.70;;
10471;SDS011;5283;48.876;8.962;2023-12-28T05:51:37;1.67;;;0.90;;
10471;SDS011;5283;48.876;8.962;2023-12-28T05:54:06;1.90;;;1.03;;
10471;SDS011;5283;48.876;8.962;2023-12-28T05:56:34;1.00;;;0.90;;
10471;SDS011;5283;48.876;8.962;2023-12-28T05:59:01;1.93;;;1.10;;
10471;SDS011;5283;48.876;8.962;2023-12-28T06:01:28;1.47;;;1.30;;
10471;SDS011;5283;48.876;8.962;2023-12-28T06:03:54;1.57;;;0.60;;
10471;SDS011;5283;48.876;8.962;2023-12-28T06:06:21;1.17;;;1.00;;
10471;SDS011;5283;48.876;8.962;2023-12-28T06:08:48;0.80;;;0.80;;
10471;SDS011;5283;48.876;8.962;2023-12-28T06:11:15;1.27;;;1.00;;
10471;SDS011;5283;48.876;8.962;2023-12-28T06:13:41;1.30;;;0.77;;
10471;SDS011;5283;48.876;8.962;2023-12-28T06:16:08;1.00;;;0.93;;
10471;SDS011;5283;48.876;8.962;2023-12-28T06:18:35;0.97;;;0.90;;
10471;SDS011;5283;48.876;8.962;2023-12-28T06:21:02;2.00;;;0.80;;
10471;SDS011;5283;48.876;8.962;2023-12-28T06:23:32;1.17;;;0.80;;
10471;SDS011;5283;48.876;8.962;2023-12-28T06:26:03;2.83;;;1.10;;
10471;SDS011;5283;48.876;8.962;2023-12-28T06:28:31;1.63;;;1.00;;
10471;SDS011;5283;48.876;8.962;2023-12-28T06:30:57;3.47;;;0.97;;
10471;SDS011;5283;48.876;8.962;2023-12-28T06:33:27;1.73;;;1.00;;
10471;SDS011;5283;48.876;8.962;2023-12-28T06:35:54;1.47;;;0.90;;
10471;SDS011;5283;48.876;8.962;2023-12-28T06:38:24;1.10;;;0.80;;
10471;SDS011;5283;48.876;8.962;2023-12-28T06:40:51;1.67;;;1.20;;
10471;SDS011;5283;48.876;8.962;2023-12-28T06:43:18;0.83;;;0.83;;
10471;SDS011;5283;48.876;8.962;2023-12-28T06:45:45;1.87;;;1.13;;
10471;SDS011;5283;48.876;8.962;2023-12-28T06:48:11;1.37;;;1.20;;
10471;SDS011;5283;48.876;8.962;2023-12-28T06:50:38;1.70;;;1.27;;
10471;SDS011;5283;48.876;8.962;2023-12-28T06:53:05;1.87;;;1.03;;
10471;SDS011;5283;48.876;8.962;2023-12-28T06:55:31;2.30;;;1.23;;
10471;SDS011;5283;48.876;8.962;2023-12-28T06:57:58;0.70;;;0.70;;
10471;SDS011;5283;48.876;8.962;2023-12-28T07:00:25;1.87;;;0.90;;
10471;SDS011;5283;48.876;8.962;2023-12-28T07:02:52;1.10;;;0.73;;
10471;SDS011;5283;48.876;8.962;2023-12-28T07:05:18;1.10;;;1.00;;
10471;SDS011;5283;48.876;8.962;2023-12-28T07:07:45;1.53;;;1.10;;
10471;SDS011;5283;48.876;8.962;2023-12-28T07:10:12;0.73;;;0.70;;
10471;SDS011;5283;48.876;8.962;2023-12-28T07:12:39;0.97;;;0.87;;
10471;SDS011;5283;48.876;8.962;2023-12-28T07:15:05;4.00;;;1.00;;
10471;SDS011;5283;48.876;8.962;2023-12-28T07:17:32;1.80;;;1.00;;
10471;SDS011;5283;48.876;8.962;2023-12-28T07:19:59;1.10;;;0.97;;
10471;SDS011;5283;48.876;8.962;2023-12-28T07:22:26;0.83;;;0.70;;
10471;SDS011;5283;48.876;8.962;2023-12-28T07:24:53;0.80;;;0.80;;
10471;SDS011;5283;48.876;8.962;2023-12-28T07:27:19;0.67;;;0.60;;
10471;SDS011;5283;48.876;8.962;2023-12-28T07:29:46;0.80;;;0.80;;
10471;SDS011;5283;48.876;8.962;2023-12-28T07:32:13;0.70;;;0.70;;
10471;SDS011;5283;48.876;8.962;2023-12-28T07:34:40;0.67;;;0.67;;
10471;SDS011;5283;48.876;8.962;2023-12-28T07:37:07;1.87;;;0.90;;
10471;SDS011;5283;48.876;8.962;2023-12-28T07:39:34;0.93;;;0.83;;
10471;SDS011;5283;48.876;8.962;2023-12-28T07:42:01;0.90;;;0.90;;
10471;SDS011;5283;48.876;8.962;2023-12-28T07:44:28;1.60;;;1.00;;
10471;SDS011;5283;48.876;8.962;2023-12-28T07:46:54;0.90;;;0.90;;
10471;SDS011;5283;48.876;8.962;2023-12-28T07:49:21;1.80;;;0.77;;
10471;SDS011;5283;48.876;8.962;2023-12-28T07:51:48;1.27;;;0.90;;
10471;SDS011;5283;48.876;8.962;2023-12-28T07:54:15;2.17;;;1.03;;
10471;SDS011;5283;48.876;8.962;2023-12-28T07:56:41;0.60;;;0.60;;
10471;SDS011;5283;48.876;8.962;2023-12-28T07:59:08;0.90;;;0.90;;
10471;SDS011;5283;48.876;8.962;2023-12-28T08:01:35;0.73;;;0.73;;
10471;SDS011;5283;48.876;8.962;2023-12-28T08:04:02;2.57;;;0.90;;
10471;SDS011;5283;48.876;8.962;2023-12-28T08:06:29;1.37;;;1.00;;
10471;SDS011;5283;48.876;8.962;2023-12-28T08:08:59;1.80;;;1.00;;
10471;SDS011;5283;48.876;8.962;2023-12-28T08:11:29;1.27;;;0.90;;
10471;SDS011;5283;48.876;8.962;2023-12-28T08:13:55;1.87;;;1.10;;
10471;SDS011;5283;48.876;8.962;2023-12-28T08:16:22;2.00;;;1.47;;
10471;SDS011;5283;48.876;8.962;2023-12-28T08:18:49;1.13;;;1.03;;
10471;SDS011;5283;48.876;8.962;2023-12-28T08:21:16;1.33;;;1.10;;
10471;SDS011;5283;48.876;8.962;2023-12-28T08:23:43;1.23;;;0.90;;
10471;SDS011;5283;48.876;8.962;2023-12-28T08:26:10;1.03;;;0.97;;
10471;SDS011;5283;48.876;8.962;2023-12-28T08:28:37;1.53;;;1.10;;
10471;SDS011;5283;48.876;8.962;2023-12-28T08:31:03;1.73;;;1.00;;
10471;SDS011;5283;48.876;8.962;2023-12-28T08:33:30;1.10;;;0.90;;
10471;SDS011;5283;48.876;8.962;2023-12-28T08:35:57;0.80;;;0.77;;
10471;SDS011;5283;48.876;8.962;2023-12-28T08:38:24;3.57;;;1.37;;
10471;SDS011;5283;48.876;8.962;2023-12-28T08:40:50;0.80;;;0.80;;
10471;SDS011;5283;48.876;8.962;2023-12-28T08:43:17;0.80;;;0.80;;
10471;SDS011;5283;48.876;8.962;2023-12-28T08:45:44;2.73;;;1.17;;
10471;SDS011;5283;48.876;8.962;2023-12-28T08:48:11;1.50;;;1.10;;
10471;SDS011;5283;48.876;8.962;2023-12-28T08:50:37;1.00;;;0.80;;
10471;SDS011;5283;48.876;8.962;2023-12-28T08:53:04;1.20;;;1.10;;
10471;SDS011;5283;48.876;8.962;2023-12-28T08:55:31;1.03;;;0.87;;
10471;SDS011;5283;48.876;8.962;2023-12-28T08:57:58;1.10;;;1.00;;
10471;SDS011;5283;48.876;8.962;2023-12-28T09:00:25;1.37;;;1.00;;
10471;SDS011;5283;48.876;8.962;2023-12-28T09:02:52;1.03;;;0.93;;
10471;SDS011;5283;48.876;8.962;2023-12-28T09:05:18;2.17;;;1.97;;
10471;SDS011;5283;48.876;8.962;2023-12-28T09:07:45;2.47;;;1.60;;
10471;SDS011;5283;48.876;8.962;2023-12-28T09:10:12;1.30;;;1.20;;
10471;SDS011;5283;48.876;8.962;2023-12-28T09:12:40;1.53;;;1.20;;
10471;SDS011;5283;48.876;8.962;2023-12-28T09:15:08;1.30;;;1.20;;
10471;SDS011;5283;48.876;8.962;2023-12-28T09:17:34;1.27;;;1.00;;
10471;SDS011;5283;48.876;8.962;2023-12-28T09:20:01;1.00;;;0.90;;
10471;SDS011;5283;48.876;8.962;2023-12-28T09:22:29;1.00;;;1.00;;
10471;SDS011;5283;48.876;8.962;2023-12-28T09:24:56;2.30;;;1.37;;
10471;SDS011;5283;48.876;8.962;2023-12-28T09:27:23;2.33;;;1.33;;
10471;SDS011;5283;48.876;8.962;2023-12-28T09:29:50;2.53;;;1.40;;
10471;SDS011;5283;48.876;8.962;2023-12-28T09:32:16;3.20;;;1.63;;
10471;SDS011;5283;48.876;8.962;2023-12-28T09:34:43;1.53;;;1.40;;
10471;SDS011;5283;48.876;8.962;2023-12-28T09:37:10;3.63;;;2.50;;
10471;SDS011;5283;48.876;8.962;2023-12-28T09:39:37;2.60;;;1.83;;
10471;SDS011;5283;48.876;8.962;2023-12-28T09:42:08;2.03;;;1.80;;
10471;SDS011;5283;48.876;8.962;2023-12-28T09:44:43;4.27;;;3.80;;
10471;SDS011;5283;48.876;8.962;2023-12-28T09:47:10;3.50;;;3.30;;
10471;SDS011;5283;48.876;8.962;2023-12-28T09:49:39;5.93;;;5.63;;
10471;SDS011;5283;48.876;8.962;2023-12-28T09:52:06;7.87;;;7.47;;
10471;SDS011;5283;48.876;8.962;2023-12-28T09:54:34;7.10;;;6.70;;
10471;SDS011;5283;48.876;8.962;2023-12-28T09:57:01;6.43;;;6.03;;
10471;SDS011;5283;48.876;8.962;2023-12-28T09:59:28;10.97;;;10.47;;
10471;SDS011;5283;48.876;8.962;2023-12-28T10:01:56;6.40;;;6.10;;
10471;SDS011;5283;48.876;8.962;2023-12-28T10:04:24;8.07;;;7.67;;
10471;SDS011;5283;48.876;8.962;2023-12-28T10:06:51;8.07;;;7.67;;
10471;SDS011;5283;48.876;8.962;2023-12-28T10:09:17;10.97;;;10.33;;
10471;SDS011;5283;48.876;8.962;2023-12-28T10:11:44;34.97;;;33.47;;
10471;SDS011;5283;48.876;8.962;2023-12-28T10:14:11;45.93;;;43.87;;
10471;SDS011;5283;48.876;8.962;2023-12-28T10:16:41;78.23;;;74.93;;
10471;SDS011;5283;48.876;8.962;2023-12-28T10:19:08;31.10;;;29.60;;
10471;SDS011;5283;48.876;8.962;2023-12-28T10:21:35;32.37;;;30.87;;
10471;SDS011;5283;48.876;8.962;2023-12-28T10:24:03;17.77;;;16.97;;
10471;SDS011;5283;48.876;8.962;2023-12-28T10:26:30;34.33;;;32.67;;
10471;SDS011;5283;48.876;8.962;2023-12-28T10:29:00;60.10;;;57.40;;
10471;SDS011;5283;48.876;8.962;2023-12-28T10:31:28;91.67;;;87.73;;
10471;SDS011;5283;48.876;8.962;2023-12-28T10:33:58;86.70;;;83.00;;
10471;SDS011;5283;48.876;8.962;2023-12-28T10:36:28;62.37;;;59.57;;
10471;SDS011;5283;48.876;8.962;2023-12-28T10:38:56;47.57;;;45.37;;
10471;SDS011;5283;48.876;8.962;2023-12-28T10:41:25;38.60;;;36.93;;
10471;SDS011;5283;48.876;8.962;2023-12-28T10:44:02;1.13;;;0.97;;
10471;SDS011;5283;48.876;8.962;2023-12-28T10:46:32;1.17;;;1.10;;
10471;SDS011;5283;48.876;8.962;2023-12-28T10:49:05;1.03;;;0.93;;
10471;SDS011;5283;48.876;8.962;2023-12-28T10:51:35;1.00;;;0.90;;
10471;SDS011;5283;48.876;8.962;2023-12-28T10:57:09;1.07;;;0.80;;
10471;SDS011;5283;48.876;8.962;2023-12-28T10:59:49;2.70;;;1.10;;
10471;SDS011;5283;48.876;8.962;2023-12-28T11:02:21;1.43;;;0.87;;
10471;SDS011;5283;48.876;8.962;2023-12-28T11:04:54;0.80;;;0.80;;
10471;SDS011;5283;48.876;8.962;2023-12-28T11:07:22;1.43;;;1.10;;
10471;SDS011;5283;48.876;8.962;2023-12-28T11:09:49;0.97;;;0.87;;
10471;SDS011;5283;48.876;8.962;2023-12-28T11:12:18;1.73;;;0.80;;
10471;SDS011;5283;48.876;8.962;2023-12-28T11:14:47;1.47;;;1.10;;
10471;SDS011;5283;48.876;8.962;2023-12-28T11:17:14;0.70;;;0.70;;
10471;SDS011;5283;48.876;8.962;2023-12-28T11:19:42;1.13;;;0.93;;
10471;SDS011;5283;48.876;8.962;2023-12-28T11:22:10;1.00;;;0.80;;
10471;SDS011;5283;48.876;8.962;2023-12-28T11:24:37;1.30;;;1.00;;
10471;SDS011;5283;48.876;8.962;2023-12-28T11:27:04;1.13;;;0.93;;
10471;SDS011;5283;48.876;8.962;2023-12-28T11:29:33;1.10;;;0.70;;
10471;SDS011;5283;48.876;8.962;2023-12-28T11:32:00;2.10;;;0.90;;
10471;SDS011;5283;48.876;8.962;2023-12-28T11:34:30;1.80;;;0.83;;
10471;SDS011;5283;48.876;8.962;2023-12-28T11:37:00;1.17;;;1.07;;
10471;SDS011;5283;48.876;8.962;2023-12-28T11:39:32;2.00;;;1.00;;
10471;SDS011;5283;48.876;8.962;2023-12-28T11:42:04;1.33;;;0.90;;
10471;SDS011;5283;48.876;8.962;2023-12-28T11:44:38;1.33;;;1.00;;
10471;SDS011;5283;48.876;8.962;2023-12-28T11:47:13;1.17;;;1.10;;
10471;SDS011;5283;48.876;8.962;2023-12-28T11:49:40;1.47;;;1.00;;
10471;SDS011;5283;48.876;8.962;2023-12-28T11:52:09;0.70;;;0.70;;
10471;SDS011;5283;48.876;8.962;2023-12-28T11:54:37;1.40;;;0.90;;
10471;SDS011;5283;48.876;8.962;2023-12-28T11:57:04;1.53;;;1.10;;
10471;SDS011;5283;48.876;8.962;2023-12-28T11:59:31;1.43;;;1.10;;
10471;SDS011;5283;48.876;8.962;2023-12-28T12:01:58;3.77;;;3.10;;
10471;SDS011;5283;48.876;8.962;2023-12-28T12:04:25;2.40;;;2.13;;
10471;SDS011;5283;48.876;8.962;2023-12-28T12:06:52;7.27;;;5.30;;
10471;SDS011;5283;48.876;8.962;2023-12-28T12:09:19;5.10;;;3.80;;
10471;SDS011;5283;48.876;8.962;2023-12-28T12:11:48;5.60;;;3.60;;
10471;SDS011;5283;48.876;8.962;2023-12-28T12:14:15;2.50;;;2.23;;
10471;SDS011;5283;48.876;8.962;2023-12-28T12:16:42;2.97;;;2.77;;
10471;SDS011;5283;48.876;8.962;2023-12-28T12:19:09;2.20;;;2.00;;
10471;SDS011;5283;48.876;8.962;2023-12-28T12:21:36;1.70;;;1.60;;
10471;SDS011;5283;48.876;8.962;2023-12-28T12:24:02;1.70;;;1.53;;
10471;SDS011;5283;48.876;8.962;2023-12-28T12:26:30;2.07;;;1.70;;
10471;SDS011;5283;48.876;8.962;2023-12-28T12:28:58;2.17;;;1.50;;
10471;SDS011;5283;48.876;8.962;2023-12-28T12:31:25;1.60;;;1.50;;
10471;SDS011;5283;48.876;8.962;2023-12-28T12:33:52;1.50;;;1.40;;
10471;SDS011;5283;48.876;8.962;2023-12-28T12:36:19;1.67;;;1.57;;
10471;SDS011;5283;48.876;8.962;2023-12-28T12:38:48;1.90;;;1.23;;
10471;SDS011;5283;48.876;8.962;2023-12-28T12:41:14;1.50;;;1.40;;
10471;SDS011;5283;48.876;8.962;2023-12-28T12:43:42;1.37;;;1.10;;
10471;SDS011;5283;48.876;8.962;2023-12-28T12:46:09;1.30;;;1.20;;
10471;SDS011;5283;48.876;8.962;2023-12-28T12:48:36;1.70;;;1.20;;
10471;SDS011;5283;48.876;8.962;2023-12-28T12:51:02;1.47;;;1.17;;
10471;SDS011;5283;48.876;8.962;2023-12-28T12:53:36;1.40;;;1.17;;
10471;SDS011;5283;48.876;8.962;2023-12-28T12:56:03;2.33;;;1.87;;
10471;SDS011;5283;48.876;8.962;2023-12-28T12:58:31;5.83;;;2.33;;
10471;SDS011;5283;48.876;8.962;2023-12-28T13:00:59;4.17;;;2.70;;
10471;SDS011;5283;48.876;8.962;2023-12-28T13:03:28;3.13;;;2.40;;
10471;SDS011;5283;48.876;8.962;2023-12-28T13:05:58;4.20;;;2.73;;
10471;SDS011;5283;48.876;8.962;2023-12-28T13:08:25;3.83;;;2.80;;
10471;SDS011;5283;48.876;8.962;2023-12-28T13:10:51;3.30;;;2.63;;
10471;SDS011;5283;48.876;8.962;2023-12-28T13:13:18;4.17;;;3.77;;
10471;SDS011;5283;48.876;8.962;2023-12-28T13:15:45;3.93;;;3.50;;
10471;SDS011;5283;48.876;8.962;2023-12-28T13:18:12;7.27;;;5.27;;
10471;SDS011;5283;48.876;8.962;2023-12-28T13:20:38;8.00;;;5.57;;
10471;SDS011;5283;48.876;8.962;2023-12-28T13:23:05;3.60;;;3.30;;
10471;SDS011;5283;48.876;8.962;2023-12-28T13:25:32;0.77;;;0.77;;
10471;SDS011;5283;48.876;8.962;2023-12-28T13:27:59;1.53;;;0.80;;
10471;SDS011;5283;48.876;8.962;2023-12-28T13:30:26;0.70;;;0.70;;
10471;SDS011;5283;48.876;8.962;2023-12-28T13:32:54;0.43;;;0.43;;
10471;SDS011;5283;48.876;8.962;2023-12-28T13:35:24;0.80;;;0.80;;
10471;SDS011;5283;48.876;8.962;2023-12-28T13:37:51;1.23;;;0.70;;
10471;SDS011;5283;48.876;8.962;2023-12-28T13:40:17;0.53;;;0.53;;
10471;SDS011;5283;48.876;8.962;2023-12-28T13:42:44;0.50;;;0.50;;
10471;SDS011;5283;48.876;8.962;2023-12-28T13:45:11;0.73;;;0.70;;
10471;SDS011;5283;48.876;8.962;2023-12-28T13:47:38;0.90;;;0.90;;
10471;SDS011;5283;48.876;8.962;2023-12-28T13:50:05;0.77;;;0.77;;
10471;SDS011;5283;48.876;8.962;2023-12-28T13:52:32;0.70;;;0.70;;
10471;SDS011;5283;48.876;8.962;2023-12-28T13:54:59;0.73;;;0.73;;
10471;SDS011;5283;48.876;8.962;2023-12-28T13:57:26;0.60;;;0.60;;
10471;SDS011;5283;48.876;8.962;2023-12-28T13:59:52;0.80;;;0.80;;
10471;SDS011;5283;48.876;8.962;2023-12-28T14:02:20;1.00;;;0.90;;
10471;SDS011;5283;48.876;8.962;2023-12-28T14:04:48;1.10;;;1.00;;
10471;SDS011;5283;48.876;8.962;2023-12-28T14:07:15;0.90;;;0.90;;
10471;SDS011;5283;48.876;8.962;2023-12-28T14:09:41;2.80;;;0.70;;
10471;SDS011;5283;48.876;8.962;2023-12-28T14:12:08;1.03;;;0.83;;
10471;SDS011;5283;48.876;8.962;2023-12-28T14:14:35;0.80;;;0.80;;
10471;SDS011;5283;48.876;8.962;2023-12-28T14:17:01;1.50;;;0.90;;
10471;SDS011;5283;48.876;8.962;2023-12-28T14:19:30;2.43;;;0.70;;
10471;SDS011;5283;48.876;8.962;2023-12-28T14:21:58;1.47;;;0.70;;
10471;SDS011;5283;48.876;8.962;2023-12-28T14:24:26;0.70;;;0.70;;
10471;SDS011;5283;48.876;8.962;2023-12-28T14:26:53;0.70;;;0.70;;
10471;SDS011;5283;48.876;8.962;2023-12-28T14:29:21;1.10;;;1.00;;
10471;SDS011;5283;48.876;8.962;2023-12-28T14:31:48;1.10;;;1.00;;
10471;SDS011;5283;48.876;8.962;2023-12-28T14:34:15;0.80;;;0.80;;
10471;SDS011;5283;48.876;8.962;2023-12-28T14:36:44;0.73;;;0.73;;
10471;SDS011;5283;48.876;8.962;2023-12-28T14:39:16;2.37;;;0.90;;
10471;SDS011;5283;48.876;8.962;2023-12-28T14:41:46;0.70;;;0.70;;
10471;SDS011;5283;48.876;8.962;2023-12-28T14:44:12;1.10;;;1.10;;
10471;SDS011;5283;48.876;8.962;2023-12-28T14:46:39;1.10;;;0.93;;
10471;SDS011;5283;48.876;8.962;2023-12-28T14:49:07;2.53;;;0.90;;
10471;SDS011;5283;48.876;8.962;2023-12-28T14:51:34;3.33;;;2.87;;
10471;SDS011;5283;48.876;8.962;2023-12-28T14:54:00;3.23;;;2.90;;
10471;SDS011;5283;48.876;8.962;2023-12-28T14:56:27;3.37;;;2.80;;
10471;SDS011;5283;48.876;8.962;2023-12-28T14:58:55;2.70;;;2.50;;
10471;SDS011;5283;48.876;8.962;2023-12-28T15:01:22;2.70;;;2.33;;
10471;SDS011;5283;48.876;8.962;2023-12-28T15:03:49;2.97;;;2.73;;
10471;SDS011;5283;48.876;8.962;2023-12-28T15:06:15;1.87;;;1.60;;
10471;SDS011;5283;48.876;8.962;2023-12-28T15:08:42;1.57;;;1.47;;
10471;SDS011;5283;48.876;8.962;2023-12-28T15:11:09;1.10;;;1.10;;